createdAt,value
2022-09-28T00:00:35.630Z,11.64
2022-09-28T00:06:40.640Z,11.61
2022-09-28T00:12:42.977Z,11.57
2022-09-28T00:17:49.377Z,11.56
2022-09-28T00:22:56.968Z,11.53
2022-09-28T00:28:03.556Z,11.49
2022-09-28T00:33:09.856Z,11.44
2022-09-28T00:38:18.265Z,11.43
2022-09-28T00:43:26.685Z,11.45
2022-09-28T00:48:37.658Z,11.42
2022-09-28T00:53:46.847Z,11.37
2022-09-28T00:58:56.159Z,11.31
2022-09-28T01:16:40.149Z,11.54
2022-09-28T01:22:27.916Z,11.34
2022-09-28T01:27:39.266Z,11.26
2022-09-28T01:32:55.554Z,11.20
2022-09-28T01:38:08.916Z,11.26
2022-09-28T01:43:22.412Z,11.20
2022-09-28T01:48:35.108Z,11.12
2022-09-28T01:53:45.223Z,11.18
2022-09-28T01:59:04.873Z,11.21
2022-09-28T02:04:16.563Z,11.19
2022-09-28T02:09:33.950Z,11.21
2022-09-28T02:14:45.620Z,11.20
2022-09-28T02:19:51.676Z,11.24
2022-09-28T02:25:00.920Z,11.25
2022-09-28T02:30:11.948Z,11.25
2022-09-28T02:35:20.024Z,11.22
2022-09-28T02:40:30.630Z,11.20
2022-09-28T02:45:52.916Z,11.20
2022-09-28T02:51:13.576Z,11.23
2022-09-28T02:56:54.719Z,11.20
2022-09-28T03:02:12.458Z,11.15
2022-09-28T03:07:25.846Z,11.16
2022-09-28T03:12:33.575Z,11.14
2022-09-28T03:17:41.666Z,11.10
2022-09-28T03:23:00.530Z,11.08
2022-09-28T03:28:14.144Z,11.10
2022-09-28T03:33:22.039Z,11.03
2022-09-28T03:38:28.021Z,11.01
2022-09-28T03:43:34.332Z,11.06
2022-09-28T03:48:43.358Z,11.02
2022-09-28T03:53:50.111Z,11.00
2022-09-28T03:58:56.269Z,10.94
2022-09-28T04:04:04.074Z,10.96
2022-09-28T04:09:11.100Z,10.94
2022-09-28T04:14:17.392Z,10.94
2022-09-28T04:19:25.519Z,10.89
2022-09-28T04:24:56.994Z,10.87
2022-09-28T04:30:02.951Z,10.87
2022-09-28T04:35:14.491Z,10.87
2022-09-28T04:40:20.631Z,10.85
2022-09-28T04:45:28.286Z,10.83
2022-09-28T04:50:41.597Z,10.81
2022-09-28T04:56:02.145Z,10.81
2022-09-28T05:01:14.366Z,10.78
2022-09-28T05:06:54.277Z,10.77
2022-09-28T05:12:00.466Z,10.74
2022-09-28T05:17:06.625Z,10.76
2022-09-28T05:22:21.325Z,10.79
2022-09-28T05:27:27.289Z,10.78
2022-09-28T05:32:58.977Z,10.74
2022-09-28T05:38:21.278Z,10.74
2022-09-28T05:43:27.502Z,10.75
2022-09-28T05:48:33.651Z,10.75
2022-09-28T05:53:41.138Z,10.78
2022-09-28T05:58:47.352Z,10.82
2022-09-28T06:03:55.661Z,10.83
2022-09-28T06:09:04.017Z,10.82
2022-09-28T06:14:21.023Z,10.78
2022-09-28T06:19:27.656Z,10.79
2022-09-28T06:25:04.403Z,10.79
2022-09-28T06:30:11.341Z,10.79
2022-09-28T06:35:19.249Z,10.81
2022-09-28T06:40:27.197Z,10.78
2022-09-28T06:45:33.336Z,10.79
2022-09-28T06:50:59.705Z,10.85
2022-09-28T06:56:31.967Z,10.86
2022-09-28T07:01:38.899Z,10.91
2022-09-28T07:07:09.291Z,10.90
2022-09-28T07:12:41.864Z,10.94
2022-09-28T07:18:09.613Z,10.96
2022-09-28T07:23:19.399Z,10.97
2022-09-28T07:28:45.788Z,10.93
2022-09-28T07:34:18.931Z,10.90
2022-09-28T07:40:05.287Z,10.94
2022-09-28T07:45:16.422Z,10.95
2022-09-28T07:50:22.610Z,10.97
2022-09-28T07:55:36.767Z,10.93
2022-09-28T08:01:07.829Z,10.99
2022-09-28T08:06:17.926Z,10.98
2022-09-28T08:11:25.128Z,10.96
2022-09-28T08:16:53.356Z,10.91
2022-09-28T08:22:20.979Z,10.96
2022-09-28T08:27:29.431Z,11.00
2022-09-28T08:32:37.849Z,11.03
2022-09-28T08:38:03.709Z,11.02
2022-09-28T08:43:52.523Z,11.07
2022-09-28T08:49:28.136Z,11.02
2022-09-28T08:55:18.697Z,11.02
2022-09-28T09:00:35.096Z,11.00
2022-09-28T09:06:01.732Z,10.99
2022-09-28T09:11:59.594Z,10.99
2022-09-28T09:17:20.252Z,11.03
2022-09-28T09:22:57.333Z,11.03
2022-09-28T09:28:48.288Z,11.14
2022-09-28T09:34:32.708Z,11.20
2022-09-28T09:40:20.974Z,11.25
2022-09-28T09:46:07.835Z,11.29
2022-09-28T09:51:38.758Z,11.38
2022-09-28T09:56:53.803Z,11.41
2022-09-28T10:02:25.738Z,11.39
2022-09-28T10:07:48.376Z,11.41
2022-09-28T10:12:56.342Z,11.42
2022-09-28T10:18:08.057Z,11.41
2022-09-28T10:23:39.461Z,11.44
2022-09-28T10:28:53.505Z,11.45
2022-09-28T10:34:00.188Z,11.48
2022-09-28T10:39:07.379Z,11.53
2022-09-28T10:44:20.865Z,11.52
2022-09-28T10:49:53.628Z,11.55
2022-09-28T10:55:03.146Z,11.62
2022-09-28T11:00:34.828Z,11.71
2022-09-28T11:06:04.640Z,11.81
2022-09-28T11:11:13.332Z,11.88
2022-09-28T11:16:29.880Z,11.90
2022-09-28T11:21:46.304Z,11.88
2022-09-28T11:26:56.782Z,11.86
2022-09-28T11:32:11.399Z,11.77
2022-09-28T11:38:17.117Z,11.72
2022-09-28T11:44:20.826Z,11.72
2022-09-28T11:49:41.856Z,11.76
2022-09-28T11:54:56.355Z,11.87
2022-09-28T12:00:07.530Z,11.94
2022-09-28T12:05:29.774Z,12.02
2022-09-28T12:10:45.682Z,12.03
2022-09-28T12:16:27.243Z,12.00
2022-09-28T12:21:42.338Z,12.05
2022-09-28T12:26:55.537Z,12.12
2022-09-28T12:32:12.189Z,12.18
2022-09-28T12:37:42.342Z,12.20
2022-09-28T12:43:07.743Z,12.27
2022-09-28T12:48:41.791Z,12.26
2022-09-28T12:54:09.712Z,12.17
2022-09-28T12:59:24.187Z,12.12
2022-09-28T13:04:52.135Z,12.08
2022-09-28T13:10:16.454Z,12.08
2022-09-28T13:15:41.566Z,12.05
2022-09-28T13:21:07.148Z,12.05
2022-09-28T13:26:27.463Z,12.10
2022-09-28T13:31:37.166Z,12.08
2022-09-28T13:36:48.272Z,12.09
2022-09-28T13:41:56.334Z,12.07
2022-09-28T13:47:21.112Z,12.10
2022-09-28T13:52:49.705Z,12.14
2022-09-28T13:58:04.835Z,12.13
2022-09-28T14:03:28.930Z,12.09
2022-09-28T14:08:40.591Z,12.08
2022-09-28T14:14:07.527Z,12.11
2022-09-28T14:19:22.560Z,12.11
2022-09-28T14:24:56.910Z,12.13
2022-09-28T14:30:23.013Z,12.12
2022-09-28T14:35:34.507Z,12.11
2022-09-28T14:41:11.402Z,12.10
2022-09-28T14:46:47.233Z,12.09
2022-09-28T14:52:04.290Z,12.08
2022-09-28T14:57:22.481Z,12.09
2022-09-28T15:02:34.531Z,12.08
2022-09-28T15:07:49.947Z,12.07
2022-09-28T15:12:57.905Z,12.06
2022-09-28T15:18:38.866Z,12.01
2022-09-28T15:23:48.298Z,12.00
2022-09-28T15:28:54.842Z,11.92
2022-09-28T15:34:19.626Z,11.90
2022-09-28T15:39:32.390Z,11.89
2022-09-28T15:44:45.817Z,11.89
2022-09-28T15:50:01.492Z,11.86
2022-09-28T15:55:24.299Z,11.84
2022-09-28T16:00:32.426Z,11.81
2022-09-28T16:05:45.621Z,11.69
2022-09-28T16:11:05.447Z,11.69
2022-09-28T16:16:18.236Z,11.67
2022-09-28T16:21:49.944Z,11.65
2022-09-28T16:27:02.918Z,11.51
2022-09-28T16:32:42.016Z,11.33
2022-09-28T16:37:50.852Z,11.28
2022-09-28T16:43:03.471Z,11.22
2022-09-28T16:48:11.237Z,11.22
2022-09-28T16:53:37.654Z,11.23
2022-09-28T16:58:48.379Z,11.23
2022-09-28T17:03:54.443Z,11.21
2022-09-28T17:09:07.024Z,11.27
2022-09-28T17:14:13.328Z,11.31
2022-09-28T17:19:23.492Z,11.34
2022-09-28T17:24:31.244Z,11.35
2022-09-28T17:29:37.755Z,11.29
2022-09-28T17:34:51.544Z,11.13
2022-09-28T17:40:03.883Z,10.98
2022-09-28T17:45:10.720Z,10.88
2022-09-28T17:50:24.223Z,10.76
2022-09-28T17:55:33.562Z,10.75
2022-09-28T18:00:40.553Z,10.87
2022-09-28T18:05:48.519Z,10.90
2022-09-28T18:10:57.101Z,10.90
2022-09-28T18:16:06.296Z,10.75
2022-09-28T18:21:12.850Z,10.66
2022-09-28T18:26:21.304Z,10.62
2022-09-28T18:31:28.269Z,10.59
2022-09-28T18:36:36.608Z,10.61
2022-09-28T18:41:44.708Z,10.67
2022-09-28T18:46:51.855Z,10.66
2022-09-28T18:51:58.766Z,10.58
2022-09-28T18:57:06.588Z,10.55
2022-09-28T19:02:13.216Z,10.54
2022-09-28T19:07:19.497Z,10.59
2022-09-28T19:12:27.032Z,10.61
2022-09-28T19:17:35.434Z,10.59
2022-09-28T19:22:41.669Z,10.55
2022-09-28T19:27:50.209Z,10.54
2022-09-28T19:32:56.339Z,10.58
2022-09-28T19:38:02.597Z,10.52
2022-09-28T19:43:10.465Z,10.55
2022-09-28T19:48:16.616Z,10.57
2022-09-28T19:53:22.597Z,10.52
2022-09-28T19:58:34.986Z,10.50
2022-09-28T20:03:41.250Z,10.49
2022-09-28T20:08:47.573Z,10.48
2022-09-28T20:13:55.542Z,10.22
2022-09-28T20:19:04.310Z,10.20
2022-09-28T20:24:12.798Z,10.21
2022-09-28T20:29:20.364Z,10.10
2022-09-28T20:34:26.510Z,10.11
2022-09-28T20:39:32.645Z,10.07
2022-09-28T20:44:40.202Z,10.13
2022-09-28T20:49:46.758Z,10.18
2022-09-28T20:54:53.887Z,10.24
2022-09-28T21:00:01.629Z,10.19
2022-09-28T21:05:11.151Z,10.02
2022-09-28T21:10:18.119Z,10.10
2022-09-28T21:15:25.490Z,10.16
2022-09-28T21:20:31.544Z,10.14
2022-09-28T21:25:37.493Z,10.03
2022-09-28T21:30:47.026Z,10.08
2022-09-28T21:35:53.157Z,10.05
2022-09-28T21:41:01.056Z,9.96
2022-09-28T21:46:11.594Z,9.95
2022-09-28T21:51:17.964Z,9.84
2022-09-28T21:56:24.572Z,9.87
2022-09-28T22:01:33.137Z,9.84
2022-09-28T22:06:40.126Z,9.56
2022-09-28T22:11:46.553Z,9.34
2022-09-28T22:16:53.809Z,9.43
2022-09-28T22:21:59.892Z,9.31
2022-09-28T22:27:06.328Z,9.38
2022-09-28T22:32:13.803Z,9.42
2022-09-28T22:37:19.677Z,9.45
2022-09-28T22:42:25.714Z,9.43
2022-09-28T22:47:33.015Z,9.38
2022-09-28T22:52:39.230Z,9.27
2022-09-28T22:57:45.279Z,9.24
2022-09-28T23:02:52.907Z,9.32
2022-09-28T23:07:59.345Z,9.22
2022-09-28T23:13:05.327Z,9.14
2022-09-28T23:18:12.575Z,9.27
2022-09-28T23:23:18.420Z,9.29
2022-09-28T23:28:26.986Z,9.33
2022-09-28T23:33:34.458Z,9.37
2022-09-28T23:38:41.520Z,9.29
2022-09-28T23:43:47.446Z,9.22
2022-09-28T23:48:55.155Z,9.15
2022-09-28T23:54:04.708Z,8.94
2022-09-28T23:59:10.662Z,8.76
